sensor_id;sensor_type;location;lat;lon;timestamp;pressure;altitude;pressure_sealevel;temperature;humidity
75942;BME280;64622;46.220;19.878;2022-11-20T00:01:14;100165.25;;;2.61;100.00
75942;BME280;64622;46.220;19.878;2022-11-20T00:03:41;100158.38;;;2.58;100.00
75942;BME280;64622;46.220;19.878;2022-11-20T00:06:10;100150.69;;;2.55;100.00
75942;BME280;64622;46.220;19.878;2022-11-20T00:08:37;100149.63;;;2.58;100.00
75942;BME280;64622;46.220;19.878;2022-11-20T00:11:08;100166.19;;;2.60;100.00
75942;BME280;64622;46.220;19.878;2022-11-20T00:13:35;100155.63;;;2.60;100.00
75942;BME280;64622;46.220;19.878;2022-11-20T00:16:03;100147.00;;;2.58;100.00
75942;BME280;64622;46.220;19.878;2022-11-20T00:18:32;100132.94;;;2.57;100.00
75942;BME280;64622;46.220;19.878;2022-11-20T00:21:03;100125.84;;;2.58;100.00
75942;BME280;64622;46.220;19.878;2022-11-20T00:23:30;100117.66;;;2.50;100.00
75942;BME280;64622;46.220;19.878;2022-11-20T00:26:04;100117.06;;;2.57;100.00
75942;BME280;64622;46.220;19.878;2022-11-20T00:28:30;100112.88;;;2.55;100.00
75942;BME280;64622;46.220;19.878;2022-11-20T00:31:16;100121.66;;;2.55;100.00
75942;BME280;64622;46.220;19.878;2022-11-20T00:33:44;100119.97;;;2.54;100.00
75942;BME280;64622;46.220;19.878;2022-11-20T00:36:15;100117.22;;;2.56;100.00
75942;BME280;64622;46.220;19.878;2022-11-20T00:38:43;100108.44;;;2.55;100.00
75942;BME280;64622;46.220;19.878;2022-11-20T00:41:14;100127.31;;;2.62;100.00
75942;BME280;64622;46.220;19.878;2022-11-20T00:43:41;100130.44;;;2.56;100.00
75942;BME280;64622;46.220;19.878;2022-11-20T00:46:10;100127.94;;;2.65;100.00
75942;BME280;64622;46.220;19.878;2022-11-20T00:48:38;100116.00;;;2.60;100.00
75942;BME280;64622;46.220;19.878;2022-11-20T00:51:05;100104.75;;;2.69;100.00
75942;BME280;64622;46.220;19.878;2022-11-20T00:53:32;100096.34;;;2.64;100.00
75942;BME280;64622;46.220;19.878;2022-11-20T00:56:01;100097.56;;;2.71;100.00
75942;BME280;64622;46.220;19.878;2022-11-20T00:58:33;100095.28;;;2.66;100.00
75942;BME280;64622;46.220;19.878;2022-11-20T01:01:01;100096.12;;;2.67;100.00
75942;BME280;64622;46.220;19.878;2022-11-20T01:03:31;100089.78;;;2.69;100.00
75942;BME280;64622;46.220;19.878;2022-11-20T01:06:02;100060.94;;;2.66;100.00
75942;BME280;64622;46.220;19.878;2022-11-20T01:08:31;100061.28;;;2.62;100.00
75942;BME280;64622;46.220;19.878;2022-11-20T01:11:03;100066.56;;;2.62;100.00
75942;BME280;64622;46.220;19.878;2022-11-20T01:13:31;100072.06;;;2.59;100.00
75942;BME280;64622;46.220;19.878;2022-11-20T01:18:31;100070.63;;;2.66;100.00
75942;BME280;64622;46.220;19.878;2022-11-20T01:21:22;100083.75;;;2.67;100.00
75942;BME280;64622;46.220;19.878;2022-11-20T01:23:49;100099.28;;;2.72;100.00
75942;BME280;64622;46.220;19.878;2022-11-20T01:26:19;100104.66;;;2.70;100.00
75942;BME280;64622;46.220;19.878;2022-11-20T01:28:47;100106.22;;;2.73;100.00
75942;BME280;64622;46.220;19.878;2022-11-20T01:31:31;100100.94;;;2.73;100.00
75942;BME280;64622;46.220;19.878;2022-11-20T01:34:00;100084.81;;;2.65;100.00
75942;BME280;64622;46.220;19.878;2022-11-20T01:36:30;100082.78;;;2.68;100.00
75942;BME280;64622;46.220;19.878;2022-11-20T01:39:03;100072.22;;;2.68;100.00
75942;BME280;64622;46.220;19.878;2022-11-20T01:41:32;100047.09;;;2.63;100.00
75942;BME280;64622;46.220;19.878;2022-11-20T01:44:20;100045.44;;;2.62;100.00
75942;BME280;64622;46.220;19.878;2022-11-20T01:47:02;100041.81;;;2.63;100.00
75942;BME280;64622;46.220;19.878;2022-11-20T01:49:55;100068.13;;;2.64;100.00
75942;BME280;64622;46.220;19.878;2022-11-20T01:52:27;100070.53;;;2.67;100.00
75942;BME280;64622;46.220;19.878;2022-11-20T01:55:02;100045.75;;;2.57;100.00
75942;BME280;64622;46.220;19.878;2022-11-20T01:57:31;100040.97;;;2.62;100.00
75942;BME280;64622;46.220;19.878;2022-11-20T02:00:07;100032.22;;;2.62;100.00
75942;BME280;64622;46.220;19.878;2022-11-20T02:02:41;100017.19;;;2.62;100.00
75942;BME280;64622;46.220;19.878;2022-11-20T02:05:33;100014.81;;;2.59;100.00
75942;BME280;64622;46.220;19.878;2022-11-20T02:08:03;100011.66;;;2.54;100.00
75942;BME280;64622;46.220;19.878;2022-11-20T02:10:31;100003.00;;;2.52;100.00
75942;BME280;64622;46.220;19.878;2022-11-20T02:12:58;99981.50;;;2.46;100.00
75942;BME280;64622;46.220;19.878;2022-11-20T02:15:44;99980.44;;;2.48;100.00
75942;BME280;64622;46.220;19.878;2022-11-20T02:18:11;99989.28;;;2.47;100.00
75942;BME280;64622;46.220;19.878;2022-11-20T02:20:42;99983.88;;;2.38;100.00
75942;BME280;64622;46.220;19.878;2022-11-20T02:23:23;99993.97;;;2.44;100.00
75942;BME280;64622;46.220;19.878;2022-11-20T02:25:54;100006.59;;;2.51;100.00
75942;BME280;64622;46.220;19.878;2022-11-20T02:28:22;100005.28;;;2.46;100.00
75942;BME280;64622;46.220;19.878;2022-11-20T02:30:49;99987.38;;;2.38;100.00
75942;BME280;64622;46.220;19.878;2022-11-20T02:33:16;99983.84;;;2.27;100.00
75942;BME280;64622;46.220;19.878;2022-11-20T02:35:44;99990.09;;;2.26;100.00
75942;BME280;64622;46.220;19.878;2022-11-20T02:38:11;100016.25;;;2.29;100.00
75942;BME280;64622;46.220;19.878;2022-11-20T02:40:38;100008.56;;;2.26;100.00
75942;BME280;64622;46.220;19.878;2022-11-20T02:43:04;100024.06;;;2.30;100.00
75942;BME280;64622;46.220;19.878;2022-11-20T02:45:31;100023.34;;;2.28;100.00
75942;BME280;64622;46.220;19.878;2022-11-20T02:47:58;100029.56;;;2.27;100.00
75942;BME280;64622;46.220;19.878;2022-11-20T02:50:24;100028.72;;;2.27;100.00
75942;BME280;64622;46.220;19.878;2022-11-20T02:52:51;100013.56;;;2.18;100.00
75942;BME280;64622;46.220;19.878;2022-11-20T02:55:18;100008.16;;;2.19;100.00
75942;BME280;64622;46.220;19.878;2022-11-20T02:57:45;100004.28;;;2.12;100.00
75942;BME280;64622;46.220;19.878;2022-11-20T03:00:12;99999.97;;;2.11;100.00
75942;BME280;64622;46.220;19.878;2022-11-20T03:02:38;100015.59;;;2.14;100.00
75942;BME280;64622;46.220;19.878;2022-11-20T03:05:05;100015.59;;;2.14;100.00
75942;BME280;64622;46.220;19.878;2022-11-20T03:07:31;100026.66;;;2.19;100.00
75942;BME280;64622;46.220;19.878;2022-11-20T03:09:58;100029.50;;;2.16;100.00
75942;BME280;64622;46.220;19.878;2022-11-20T03:12:25;100029.41;;;2.18;100.00
75942;BME280;64622;46.220;19.878;2022-11-20T03:14:51;100020.63;;;2.17;100.00
75942;BME280;64622;46.220;19.878;2022-11-20T03:17:17;100032.16;;;2.16;100.00
75942;BME280;64622;46.220;19.878;2022-11-20T03:19:44;100036.91;;;2.11;100.00
75942;BME280;64622;46.220;19.878;2022-11-20T03:22:11;100057.63;;;2.05;100.00
75942;BME280;64622;46.220;19.878;2022-11-20T03:24:37;100064.16;;;2.12;100.00
75942;BME280;64622;46.220;19.878;2022-11-20T03:27:07;100067.03;;;2.09;100.00
75942;BME280;64622;46.220;19.878;2022-11-20T03:29:35;100059.00;;;2.10;100.00
75942;BME280;64622;46.220;19.878;2022-11-20T03:32:01;100063.31;;;2.11;100.00
75942;BME280;64622;46.220;19.878;2022-11-20T03:34:28;100055.94;;;2.04;100.00
75942;BME280;64622;46.220;19.878;2022-11-20T03:36:54;100059.44;;;2.04;100.00
75942;BME280;64622;46.220;19.878;2022-11-20T03:39:21;100068.19;;;2.05;100.00
75942;BME280;64622;46.220;19.878;2022-11-20T03:41:47;100052.69;;;2.00;100.00
75942;BME280;64622;46.220;19.878;2022-11-20T03:44:14;100045.62;;;2.01;100.00
75942;BME280;64622;46.220;19.878;2022-11-20T03:46:40;100036.47;;;1.94;100.00
75942;BME280;64622;46.220;19.878;2022-11-20T03:49:07;100028.03;;;1.89;100.00
75942;BME280;64622;46.220;19.878;2022-11-20T03:51:35;100031.03;;;1.84;100.00
75942;BME280;64622;46.220;19.878;2022-11-20T03:54:04;100038.81;;;1.86;100.00
75942;BME280;64622;46.220;19.878;2022-11-20T03:56:34;100044.09;;;1.86;100.00
75942;BME280;64622;46.220;19.878;2022-11-20T03:59:02;100058.53;;;1.93;100.00
75942;BME280;64622;46.220;19.878;2022-11-20T04:01:33;100053.59;;;1.88;100.00
75942;BME280;64622;46.220;19.878;2022-11-20T04:04:00;100067.50;;;1.90;100.00
75942;BME280;64622;46.220;19.878;2022-11-20T04:06:30;100048.31;;;1.88;100.00
75942;BME280;64622;46.220;19.878;2022-11-20T04:08:58;100035.22;;;1.87;100.00
75942;BME280;64622;46.220;19.878;2022-11-20T04:11:30;100023.72;;;1.88;100.00
75942;BME280;64622;46.220;19.878;2022-11-20T04:13:58;100018.88;;;1.82;100.00
75942;BME280;64622;46.220;19.878;2022-11-20T04:16:28;100015.41;;;1.81;100.00
75942;BME280;64622;46.220;19.878;2022-11-20T04:18:56;100033.00;;;1.93;100.00
75942;BME280;64622;46.220;19.878;2022-11-20T04:21:24;100004.75;;;1.83;100.00
75942;BME280;64622;46.220;19.878;2022-11-20T04:23:52;100004.91;;;1.92;100.00
75942;BME280;64622;46.220;19.878;2022-11-20T04:26:20;99984.59;;;1.82;100.00
75942;BME280;64622;46.220;19.878;2022-11-20T04:28:47;99981.94;;;1.82;100.00
75942;BME280;64622;46.220;19.878;2022-11-20T04:31:19;99996.94;;;1.81;100.00
75942;BME280;64622;46.220;19.878;2022-11-20T04:33:46;99998.91;;;1.90;100.00
75942;BME280;64622;46.220;19.878;2022-11-20T04:36:16;100021.69;;;1.91;100.00
75942;BME280;64622;46.220;19.878;2022-11-20T04:38:43;100030.56;;;1.90;100.00
75942;BME280;64622;46.220;19.878;2022-11-20T04:41:16;100035.00;;;1.90;100.00
75942;BME280;64622;46.220;19.878;2022-11-20T04:43:49;100032.75;;;1.96;100.00
75942;BME280;64622;46.220;19.878;2022-11-20T04:46:17;100019.91;;;1.92;100.00
75942;BME280;64622;46.220;19.878;2022-11-20T04:48:45;100026.00;;;1.92;100.00
75942;BME280;64622;46.220;19.878;2022-11-20T04:51:12;100022.66;;;1.90;100.00
75942;BME280;64622;46.220;19.878;2022-11-20T04:53:38;100040.78;;;1.95;100.00
75942;BME280;64622;46.220;19.878;2022-11-20T04:56:07;100029.50;;;1.93;100.00
75942;BME280;64622;46.220;19.878;2022-11-20T04:58:35;100035.41;;;1.96;100.00
75942;BME280;64622;46.220;19.878;2022-11-20T05:01:07;100016.41;;;1.91;100.00
75942;BME280;64622;46.220;19.878;2022-11-20T05:03:35;100006.81;;;1.90;100.00
75942;BME280;64622;46.220;19.878;2022-11-20T05:06:02;99984.75;;;1.91;100.00
75942;BME280;64622;46.220;19.878;2022-11-20T05:08:30;99984.03;;;1.89;100.00
75942;BME280;64622;46.220;19.878;2022-11-20T05:11:10;99982.34;;;1.88;100.00
75942;BME280;64622;46.220;19.878;2022-11-20T05:13:38;99975.25;;;1.89;100.00
75942;BME280;64622;46.220;19.878;2022-11-20T05:16:10;99965.78;;;1.86;100.00
75942;BME280;64622;46.220;19.878;2022-11-20T05:18:38;99956.37;;;1.82;100.00
75942;BME280;64622;46.220;19.878;2022-11-20T05:21:05;99959.28;;;1.79;100.00
75942;BME280;64622;46.220;19.878;2022-11-20T05:23:33;99966.06;;;1.71;100.00
75942;BME280;64622;46.220;19.878;2022-11-20T05:26:01;99980.94;;;1.72;100.00
75942;BME280;64622;46.220;19.878;2022-11-20T05:28:29;99995.97;;;1.82;100.00
75942;BME280;64622;46.220;19.878;2022-11-20T05:30:56;99983.72;;;1.81;100.00
75942;BME280;64622;46.220;19.878;2022-11-20T05:33:29;99956.63;;;1.79;100.00
75942;BME280;64622;46.220;19.878;2022-11-20T05:35:59;99949.88;;;1.75;100.00
75942;BME280;64622;46.220;19.878;2022-11-20T05:38:26;99950.41;;;1.80;100.00
75942;BME280;64622;46.220;19.878;2022-11-20T05:40:52;99963.69;;;1.79;100.00
75942;BME280;64622;46.220;19.878;2022-11-20T05:43:19;99980.78;;;1.86;100.00
75942;BME280;64622;46.220;19.878;2022-11-20T05:45:55;99983.28;;;1.87;100.00
75942;BME280;64622;46.220;19.878;2022-11-20T05:48:22;99985.72;;;1.90;100.00
75942;BME280;64622;46.220;19.878;2022-11-20T05:50:48;99975.25;;;1.89;100.00
75942;BME280;64622;46.220;19.878;2022-11-20T05:53:15;99986.78;;;1.88;100.00
75942;BME280;64622;46.220;19.878;2022-11-20T05:55:42;99972.13;;;1.84;100.00
75942;BME280;64622;46.220;19.878;2022-11-20T05:58:08;99991.84;;;1.91;100.00
75942;BME280;64622;46.220;19.878;2022-11-20T06:00:34;100000.47;;;1.93;100.00
75942;BME280;64622;46.220;19.878;2022-11-20T06:03:02;100003.84;;;1.95;100.00
75942;BME280;64622;46.220;19.878;2022-11-20T06:05:28;100016.31;;;1.93;100.00
75942;BME280;64622;46.220;19.878;2022-11-20T06:07:55;100022.19;;;1.96;100.00
75942;BME280;64622;46.220;19.878;2022-11-20T06:10:22;100024.84;;;1.96;100.00
75942;BME280;64622;46.220;19.878;2022-11-20T06:12:48;100024.22;;;1.93;100.00
75942;BME280;64622;46.220;19.878;2022-11-20T06:15:14;100027.59;;;1.95;100.00
75942;BME280;64622;46.220;19.878;2022-11-20T06:17:41;100035.28;;;1.98;100.00
75942;BME280;64622;46.220;19.878;2022-11-20T06:20:08;100037.47;;;2.04;100.00
75942;BME280;64622;46.220;19.878;2022-11-20T06:22:34;100046.47;;;2.01;100.00
75942;BME280;64622;46.220;19.878;2022-11-20T06:25:01;100049.34;;;1.98;100.00
75942;BME280;64622;46.220;19.878;2022-11-20T06:27:27;100043.81;;;2.01;100.00
75942;BME280;64622;46.220;19.878;2022-11-20T06:29:54;100028.66;;;1.92;100.00
75942;BME280;64622;46.220;19.878;2022-11-20T06:32:20;100016.66;;;1.88;100.00
75942;BME280;64622;46.220;19.878;2022-11-20T06:34:47;100024.63;;;1.99;100.00
75942;BME280;64622;46.220;19.878;2022-11-20T06:37:13;100020.88;;;1.91;100.00
75942;BME280;64622;46.220;19.878;2022-11-20T06:39:40;100033.00;;;1.93;100.00
75942;BME280;64622;46.220;19.878;2022-11-20T06:42:06;100023.78;;;1.99;100.00
75942;BME280;64622;46.220;19.878;2022-11-20T06:44:33;100028.84;;;2.02;100.00
75942;BME280;64622;46.220;19.878;2022-11-20T06:46:59;100028.09;;;2.00;100.00
75942;BME280;64622;46.220;19.878;2022-11-20T06:49:26;100032.09;;;2.05;100.00
75942;BME280;64622;46.220;19.878;2022-11-20T06:51:52;100015.66;;;2.02;100.00
75942;BME280;64622;46.220;19.878;2022-11-20T06:54:19;100022.91;;;2.11;100.00
75942;BME280;64622;46.220;19.878;2022-11-20T06:56:48;100026.34;;;2.11;100.00
75942;BME280;64622;46.220;19.878;2022-11-20T06:59:15;100042.09;;;2.13;100.00
75942;BME280;64622;46.220;19.878;2022-11-20T07:01:42;100042.53;;;2.07;100.00
75942;BME280;64622;46.220;19.878;2022-11-20T07:04:08;100050.56;;;2.05;100.00
75942;BME280;64622;46.220;19.878;2022-11-20T07:06:35;100053.72;;;2.10;100.00
75942;BME280;64622;46.220;19.878;2022-11-20T07:09:01;100051.06;;;2.10;100.00
75942;BME280;64622;46.220;19.878;2022-11-20T07:11:28;100037.88;;;2.10;100.00
75942;BME280;64622;46.220;19.878;2022-11-20T07:13:56;100051.06;;;2.10;100.00
75942;BME280;64622;46.220;19.878;2022-11-20T07:16:23;100065.28;;;2.20;100.00
75942;BME280;64622;46.220;19.878;2022-11-20T07:18:49;100065.78;;;2.25;100.00
75942;BME280;64622;46.220;19.878;2022-11-20T07:21:15;100079.00;;;2.25;100.00
75942;BME280;64622;46.220;19.878;2022-11-20T07:23:43;100107.12;;;2.37;100.00
75942;BME280;64622;46.220;19.878;2022-11-20T07:26:10;100103.62;;;2.26;100.00
75942;BME280;64622;46.220;19.878;2022-11-20T07:28:38;100088.28;;;2.31;100.00
75942;BME280;64622;46.220;19.878;2022-11-20T07:31:05;100085.28;;;2.35;100.00
75942;BME280;64622;46.220;19.878;2022-11-20T07:33:33;100079.28;;;2.33;100.00
75942;BME280;64622;46.220;19.878;2022-11-20T07:35:59;100078.44;;;2.33;100.00
75942;BME280;64622;46.220;19.878;2022-11-20T07:38:27;100076.47;;;2.24;100.00
75942;BME280;64622;46.220;19.878;2022-11-20T07:40:57;100085.00;;;2.27;100.00
75942;BME280;64622;46.220;19.878;2022-11-20T07:43:24;100089.22;;;2.30;100.00
75942;BME280;64622;46.220;19.878;2022-11-20T07:45:51;100099.56;;;2.33;100.00
75942;BME280;64622;46.220;19.878;2022-11-20T07:48:18;100096.72;;;2.36;100.00
75942;BME280;64622;46.220;19.878;2022-11-20T07:50:45;100095.84;;;2.35;100.00
75942;BME280;64622;46.220;19.878;2022-11-20T07:53:12;100096.47;;;2.39;100.00
75942;BME280;64622;46.220;19.878;2022-11-20T07:55:40;100085.69;;;2.42;100.00
75942;BME280;64622;46.220;19.878;2022-11-20T07:58:06;100102.03;;;2.47;100.00
75942;BME280;64622;46.220;19.878;2022-11-20T08:00:33;100091.59;;;2.45;100.00
75942;BME280;64622;46.220;19.878;2022-11-20T08:03:05;100106.88;;;2.53;100.00
75942;BME280;64622;46.220;19.878;2022-11-20T08:05:32;100097.59;;;2.47;100.00
75942;BME280;64622;46.220;19.878;2022-11-20T08:07:59;100104.34;;;2.51;100.00
75942;BME280;64622;46.220;19.878;2022-11-20T08:10:25;100093.44;;;2.56;100.00
75942;BME280;64622;46.220;19.878;2022-11-20T08:12:54;100092.63;;;2.66;100.00
75942;BME280;64622;46.220;19.878;2022-11-20T08:15:39;100095.66;;;2.73;99.80
75942;BME280;64622;46.220;19.878;2022-11-20T08:18:12;100104.75;;;2.69;99.61
75942;BME280;64622;46.220;19.878;2022-11-20T08:20:39;100115.47;;;2.78;99.66
75942;BME280;64622;46.220;19.878;2022-11-20T08:23:07;100135.34;;;2.84;99.92
75942;BME280;64622;46.220;19.878;2022-11-20T08:25:36;100136.31;;;2.83;99.65
75942;BME280;64622;46.220;19.878;2022-11-20T08:28:06;100130.75;;;2.86;99.54
75942;BME280;64622;46.220;19.878;2022-11-20T08:30:32;100120.66;;;2.80;99.38
75942;BME280;64622;46.220;19.878;2022-11-20T08:33:04;100122.25;;;2.93;99.36
75942;BME280;64622;46.220;19.878;2022-11-20T08:35:37;100122.06;;;3.07;99.48
75942;BME280;64622;46.220;19.878;2022-11-20T08:38:05;100108.84;;;3.07;98.82
75942;BME280;64622;46.220;19.878;2022-11-20T08:40:33;100080.25;;;3.12;98.69
75942;BME280;64622;46.220;19.878;2022-11-20T08:42:59;100094.22;;;3.14;98.65
75942;BME280;64622;46.220;19.878;2022-11-20T08:45:26;100100.22;;;3.16;98.66
75942;BME280;64622;46.220;19.878;2022-11-20T08:47:53;100103.84;;;3.26;97.94
75942;BME280;64622;46.220;19.878;2022-11-20T08:50:20;100107.09;;;3.41;97.74
75942;BME280;64622;46.220;19.878;2022-11-20T08:52:46;100122.03;;;3.42;97.43
75942;BME280;64622;46.220;19.878;2022-11-20T08:55:13;100113.03;;;3.44;97.51
75942;BME280;64622;46.220;19.878;2022-11-20T08:57:39;100116.88;;;3.51;96.74
75942;BME280;64622;46.220;19.878;2022-11-20T09:00:07;100114.94;;;3.42;96.20
75942;BME280;64622;46.220;19.878;2022-11-20T09:02:34;100122.97;;;3.41;96.42
75942;BME280;64622;46.220;19.878;2022-11-20T09:05:00;100135.37;;;3.40;96.43
75942;BME280;64622;46.220;19.878;2022-11-20T09:07:29;100147.91;;;3.49;96.40
75942;BME280;64622;46.220;19.878;2022-11-20T09:09:56;100168.97;;;3.62;95.92
75942;BME280;64622;46.220;19.878;2022-11-20T09:12:22;100173.91;;;3.66;95.92
75942;BME280;64622;46.220;19.878;2022-11-20T09:14:49;100194.97;;;3.68;95.79
75942;BME280;64622;46.220;19.878;2022-11-20T09:17:15;100201.56;;;3.62;95.84
75942;BME280;64622;46.220;19.878;2022-11-20T09:19:43;100204.69;;;3.56;95.79
75942;BME280;64622;46.220;19.878;2022-11-20T09:22:09;100203.88;;;3.67;96.07
75942;BME280;64622;46.220;19.878;2022-11-20T09:24:36;100197.94;;;3.63;96.18
75942;BME280;64622;46.220;19.878;2022-11-20T09:27:04;100211.56;;;3.70;95.50
75942;BME280;64622;46.220;19.878;2022-11-20T09:29:31;100209.66;;;3.72;95.82
75942;BME280;64622;46.220;19.878;2022-11-20T09:31:58;100205.53;;;3.68;95.72
75942;BME280;64622;46.220;19.878;2022-11-20T09:34:24;100192.91;;;3.82;95.50
75942;BME280;64622;46.220;19.878;2022-11-20T09:36:50;100187.41;;;3.96;94.92
75942;BME280;64622;46.220;19.878;2022-11-20T09:39:17;100186.56;;;4.07;94.38
75942;BME280;64622;46.220;19.878;2022-11-20T09:53:12;100187.62;;;4.26;93.14
75942;BME280;64622;46.220;19.878;2022-11-20T09:55:40;100191.72;;;4.30;93.17
75942;BME280;64622;46.220;19.878;2022-11-20T09:58:14;100182.19;;;4.50;92.83
75942;BME280;64622;46.220;19.878;2022-11-20T10:00:42;100159.84;;;4.63;92.15
75942;BME280;64622;46.220;19.878;2022-11-20T10:03:16;100171.22;;;4.54;92.38
75942;BME280;64622;46.220;19.878;2022-11-20T10:05:47;100181.28;;;4.71;92.09
75942;BME280;64622;46.220;19.878;2022-11-20T10:08:28;100171.66;;;4.70;90.46
75942;BME280;64622;46.220;19.878;2022-11-20T10:11:04;100182.47;;;4.89;90.44
75942;BME280;64622;46.220;19.878;2022-11-20T10:13:43;100169.97;;;5.01;90.53
75942;BME280;64622;46.220;19.878;2022-11-20T10:29:34;100127.34;;;7.30;81.47
75942;BME280;64622;46.220;19.878;2022-11-20T10:32:18;100129.16;;;7.39;80.49
75942;BME280;64622;46.220;19.878;2022-11-20T10:37:29;100147.50;;;7.52;79.79
75942;BME280;64622;46.220;19.878;2022-11-20T10:40:18;100147.94;;;6.81;81.39
75942;BME280;64622;46.220;19.878;2022-11-20T10:42:50;100151.22;;;6.44;84.86
75942;BME280;64622;46.220;19.878;2022-11-20T10:48:19;100147.94;;;6.22;85.97
75942;BME280;64622;46.220;19.878;2022-11-20T10:56:59;100155.44;;;6.07;87.32
75942;BME280;64622;46.220;19.878;2022-11-20T11:05:10;100160.56;;;5.99;87.85
75942;BME280;64622;46.220;19.878;2022-11-20T11:07:39;100163.84;;;6.03;87.89
75942;BME280;64622;46.220;19.878;2022-11-20T11:10:16;100175.81;;;5.97;87.12
75942;BME280;64622;46.220;19.878;2022-11-20T11:12:47;100181.97;;;6.28;87.67
75942;BME280;64622;46.220;19.878;2022-11-20T11:15:37;100170.22;;;6.31;86.97
75942;BME280;64622;46.220;19.878;2022-11-20T11:18:04;100165.19;;;6.37;86.81
75942;BME280;64622;46.220;19.878;2022-11-20T11:20:30;100165.53;;;6.53;86.26
75942;BME280;64622;46.220;19.878;2022-11-20T11:22:59;100156.47;;;6.93;85.08
75942;BME280;64622;46.220;19.878;2022-11-20T11:25:31;100146.69;;;6.94;83.58
75942;BME280;64622;46.220;19.878;2022-11-20T11:28:21;100136.38;;;8.02;81.00
75942;BME280;64622;46.220;19.878;2022-11-20T11:30:48;100139.78;;;7.94;79.66
75942;BME280;64622;46.220;19.878;2022-11-20T11:35:52;100153.41;;;7.46;81.13
75942;BME280;64622;46.220;19.878;2022-11-20T11:38:28;100150.72;;;7.46;81.86
75942;BME280;64622;46.220;19.878;2022-11-20T11:40:56;100159.56;;;6.98;82.60
75942;BME280;64622;46.220;19.878;2022-11-20T11:43:26;100157.88;;;7.07;83.33
75942;BME280;64622;46.220;19.878;2022-11-20T11:48:57;100178.06;;;7.00;83.91
75942;BME280;64622;46.220;19.878;2022-11-20T11:57:05;100171.59;;;7.12;84.26
75942;BME280;64622;46.220;19.878;2022-11-20T12:02:42;100172.75;;;6.91;84.71
75942;BME280;64622;46.220;19.878;2022-11-20T12:05:32;100159.00;;;6.76;84.91
75942;BME280;64622;46.220;19.878;2022-11-20T12:16:03;100169.56;;;6.47;85.24
75942;BME280;64622;46.220;19.878;2022-11-20T12:18:31;100160.47;;;6.50;85.91
75942;BME280;64622;46.220;19.878;2022-11-20T12:24:35;100152.37;;;6.52;85.81
75942;BME280;64622;46.220;19.878;2022-11-20T12:27:16;100152.06;;;6.45;85.81
75942;BME280;64622;46.220;19.878;2022-11-20T12:43:21;100135.13;;;6.46;86.08
75942;BME280;64622;46.220;19.878;2022-11-20T13:01:53;100148.59;;;6.54;86.42
75942;BME280;64622;46.220;19.878;2022-11-20T13:04:45;100152.25;;;6.53;86.18
75942;BME280;64622;46.220;19.878;2022-11-20T13:07:16;100148.47;;;6.56;86.48
75942;BME280;64622;46.220;19.878;2022-11-20T13:09:46;100130.00;;;6.54;85.89
75942;BME280;64622;46.220;19.878;2022-11-20T13:12:36;100142.72;;;6.51;86.23
75942;BME280;64622;46.220;19.878;2022-11-20T13:17:57;100143.97;;;6.47;86.02
75942;BME280;64622;46.220;19.878;2022-11-20T13:20:26;100145.94;;;6.54;86.14
75942;BME280;64622;46.220;19.878;2022-11-20T13:22:55;100141.56;;;6.43;86.33
75942;BME280;64622;46.220;19.878;2022-11-20T13:25:28;100145.66;;;6.47;86.17
75942;BME280;64622;46.220;19.878;2022-11-20T13:28:00;100160.47;;;6.50;85.93
75942;BME280;64622;46.220;19.878;2022-11-20T13:30:29;100154.47;;;6.48;86.22
75942;BME280;64622;46.220;19.878;2022-11-20T13:33:00;100165.94;;;6.48;86.62
75942;BME280;64622;46.220;19.878;2022-11-20T13:40:38;100176.97;;;6.44;86.52
75942;BME280;64622;46.220;19.878;2022-11-20T13:46:00;100182.75;;;6.49;86.94
75942;BME280;64622;46.220;19.878;2022-11-20T13:48:34;100191.09;;;6.44;86.92
75942;BME280;64622;46.220;19.878;2022-11-20T13:51:29;100172.50;;;6.44;87.12
75942;BME280;64622;46.220;19.878;2022-11-20T13:54:27;100182.00;;;6.47;87.21
75942;BME280;64622;46.220;19.878;2022-11-20T13:57:36;100185.09;;;6.43;87.20
75942;BME280;64622;46.220;19.878;2022-11-20T14:02:40;100182.53;;;6.32;87.05
75942;BME280;64622;46.220;19.878;2022-11-20T14:05:20;100197.63;;;6.31;86.64
75942;BME280;64622;46.220;19.878;2022-11-20T14:07:50;100203.50;;;6.34;87.24
75942;BME280;64622;46.220;19.878;2022-11-20T14:10:25;100207.69;;;6.28;87.17
75942;BME280;64622;46.220;19.878;2022-11-20T14:12:53;100204.34;;;6.26;87.36
75942;BME280;64622;46.220;19.878;2022-11-20T14:15:31;100191.84;;;6.17;87.60
75942;BME280;64622;46.220;19.878;2022-11-20T14:17:59;100196.87;;;6.19;88.06
75942;BME280;64622;46.220;19.878;2022-11-20T14:20:37;100193.22;;;6.11;87.63
75942;BME280;64622;46.220;19.878;2022-11-20T14:23:10;100201.06;;;6.12;87.95
75942;BME280;64622;46.220;19.878;2022-11-20T14:25:41;100211.00;;;6.11;87.76
75942;BME280;64622;46.220;19.878;2022-11-20T14:28:26;100194.72;;;6.04;88.48
75942;BME280;64622;46.220;19.878;2022-11-20T14:30:54;100196.28;;;6.07;88.75
75942;BME280;64622;46.220;19.878;2022-11-20T14:33:22;100197.38;;;6.04;89.14
75942;BME280;64622;46.220;19.878;2022-11-20T14:35:53;100194.59;;;6.06;89.02
75942;BME280;64622;46.220;19.878;2022-11-20T14:38:27;100187.88;;;6.02;89.39
75942;BME280;64622;46.220;19.878;2022-11-20T14:41:06;100188.56;;;6.03;89.48
75942;BME280;64622;46.220;19.878;2022-11-20T14:43:33;100196.81;;;6.01;89.62
75942;BME280;64622;46.220;19.878;2022-11-20T14:46:08;100195.97;;;6.00;90.09
75942;BME280;64622;46.220;19.878;2022-11-20T14:48:44;100178.59;;;5.96;90.48
75942;BME280;64622;46.220;19.878;2022-11-20T14:51:24;100176.69;;;5.98;90.77
75942;BME280;64622;46.220;19.878;2022-11-20T14:53:52;100163.78;;;5.93;91.09